sensor_id;sensor_type;location;lat;lon;timestamp;P1;durP1;ratioP1;P2;durP2;ratioP2
68475;SDS011;55464;48.266;14.188;2023-04-24T00:02:09;2.15;;;0.95;;
68475;SDS011;55464;48.266;14.188;2023-04-24T00:04:36;1.30;;;1.00;;
68475;SDS011;55464;48.266;14.188;2023-04-24T00:07:05;1.23;;;1.13;;
68475;SDS011;55464;48.266;14.188;2023-04-24T00:09:31;3.58;;;0.90;;
68475;SDS011;55464;48.266;14.188;2023-04-24T00:11:57;1.05;;;1.00;;
68475;SDS011;55464;48.266;14.188;2023-04-24T00:14:23;3.55;;;1.00;;
68475;SDS011;55464;48.266;14.188;2023-04-24T00:16:48;1.30;;;1.20;;
68475;SDS011;55464;48.266;14.188;2023-04-24T00:19:13;1.55;;;1.33;;
68475;SDS011;55464;48.266;14.188;2023-04-24T00:21:39;1.65;;;1.13;;
68475;SDS011;55464;48.266;14.188;2023-04-24T00:24:06;1.60;;;1.50;;
68475;SDS011;55464;48.266;14.188;2023-04-24T00:26:33;2.40;;;1.10;;
68475;SDS011;55464;48.266;14.188;2023-04-24T00:28:59;2.47;;;1.40;;
68475;SDS011;55464;48.266;14.188;2023-04-24T00:31:25;2.75;;;1.17;;
68475;SDS011;55464;48.266;14.188;2023-04-24T00:33:50;3.17;;;1.20;;
68475;SDS011;55464;48.266;14.188;2023-04-24T00:36:16;1.27;;;1.17;;
68475;SDS011;55464;48.266;14.188;2023-04-24T00:38:41;1.30;;;1.20;;
68475;SDS011;55464;48.266;14.188;2023-04-24T00:41:07;1.70;;;1.30;;
68475;SDS011;55464;48.266;14.188;2023-04-24T00:43:32;3.92;;;1.60;;
68475;SDS011;55464;48.266;14.188;2023-04-24T00:45:58;2.13;;;1.40;;
68475;SDS011;55464;48.266;14.188;2023-04-24T00:48:24;2.53;;;1.40;;
68475;SDS011;55464;48.266;14.188;2023-04-24T00:50:50;1.35;;;1.25;;
68475;SDS011;55464;48.266;14.188;2023-04-24T00:53:16;4.95;;;1.67;;
68475;SDS011;55464;48.266;14.188;2023-04-24T00:55:41;2.92;;;1.50;;
68475;SDS011;55464;48.266;14.188;2023-04-24T00:58:07;2.40;;;1.25;;
68475;SDS011;55464;48.266;14.188;2023-04-24T01:00:32;3.78;;;1.67;;
68475;SDS011;55464;48.266;14.188;2023-04-24T01:02:59;3.42;;;1.40;;
68475;SDS011;55464;48.266;14.188;2023-04-24T01:05:26;1.52;;;1.20;;
68475;SDS011;55464;48.266;14.188;2023-04-24T01:07:52;1.98;;;1.20;;
68475;SDS011;55464;48.266;14.188;2023-04-24T01:10:17;1.75;;;1.17;;
68475;SDS011;55464;48.266;14.188;2023-04-24T01:12:45;2.35;;;1.20;;
68475;SDS011;55464;48.266;14.188;2023-04-24T01:15:11;1.38;;;1.27;;
68475;SDS011;55464;48.266;14.188;2023-04-24T01:17:36;1.40;;;1.30;;
68475;SDS011;55464;48.266;14.188;2023-04-24T01:20:03;1.80;;;1.30;;
68475;SDS011;55464;48.266;14.188;2023-04-24T01:22:30;1.70;;;1.35;;
68475;SDS011;55464;48.266;14.188;2023-04-24T01:24:56;1.02;;;0.88;;
68475;SDS011;55464;48.266;14.188;2023-04-24T01:27:21;2.03;;;1.00;;
68475;SDS011;55464;48.266;14.188;2023-04-24T01:29:47;1.30;;;1.20;;
68475;SDS011;55464;48.266;14.188;2023-04-24T01:32:14;0.95;;;0.95;;
68475;SDS011;55464;48.266;14.188;2023-04-24T01:34:40;1.85;;;0.90;;
68475;SDS011;55464;48.266;14.188;2023-04-24T01:37:06;0.95;;;0.90;;
68475;SDS011;55464;48.266;14.188;2023-04-24T01:39:31;2.22;;;1.20;;
68475;SDS011;55464;48.266;14.188;2023-04-24T01:41:58;1.60;;;1.00;;
68475;SDS011;55464;48.266;14.188;2023-04-24T01:44:25;1.30;;;1.02;;
68475;SDS011;55464;48.266;14.188;2023-04-24T01:46:51;1.30;;;0.90;;
68475;SDS011;55464;48.266;14.188;2023-04-24T01:49:18;0.90;;;0.82;;
68475;SDS011;55464;48.266;14.188;2023-04-24T01:51:44;1.05;;;0.90;;
68475;SDS011;55464;48.266;14.188;2023-04-24T01:54:10;1.02;;;0.88;;
68475;SDS011;55464;48.266;14.188;2023-04-24T01:56:36;1.60;;;1.00;;
68475;SDS011;55464;48.266;14.188;2023-04-24T01:59:04;1.67;;;1.58;;
68475;SDS011;55464;48.266;14.188;2023-04-24T02:01:34;1.02;;;0.85;;
68475;SDS011;55464;48.266;14.188;2023-04-24T02:04:01;0.70;;;0.70;;
68475;SDS011;55464;48.266;14.188;2023-04-24T02:06:27;1.90;;;1.00;;
68475;SDS011;55464;48.266;14.188;2023-04-24T02:08:52;0.70;;;0.70;;
68475;SDS011;55464;48.266;14.188;2023-04-24T02:11:18;0.98;;;0.90;;
68475;SDS011;55464;48.266;14.188;2023-04-24T02:13:44;1.42;;;0.80;;
68475;SDS011;55464;48.266;14.188;2023-04-24T02:16:09;0.90;;;0.60;;
68475;SDS011;55464;48.266;14.188;2023-04-24T02:18:35;1.27;;;0.80;;
68475;SDS011;55464;48.266;14.188;2023-04-24T02:21:00;1.70;;;0.80;;
68475;SDS011;55464;48.266;14.188;2023-04-24T02:23:25;3.45;;;1.15;;
68475;SDS011;55464;48.266;14.188;2023-04-24T02:25:52;1.00;;;0.90;;
68475;SDS011;55464;48.266;14.188;2023-04-24T02:28:18;1.10;;;0.80;;
68475;SDS011;55464;48.266;14.188;2023-04-24T02:30:44;0.90;;;0.90;;
68475;SDS011;55464;48.266;14.188;2023-04-24T02:33:10;2.33;;;0.75;;
68475;SDS011;55464;48.266;14.188;2023-04-24T02:35:36;1.98;;;0.90;;
68475;SDS011;55464;48.266;14.188;2023-04-24T02:38:01;0.98;;;0.98;;
68475;SDS011;55464;48.266;14.188;2023-04-24T02:40:28;1.38;;;0.98;;
68475;SDS011;55464;48.266;14.188;2023-04-24T02:42:54;0.82;;;0.70;;
68475;SDS011;55464;48.266;14.188;2023-04-24T02:45:19;1.33;;;1.00;;
68475;SDS011;55464;48.266;14.188;2023-04-24T02:47:45;1.58;;;1.13;;
68475;SDS011;55464;48.266;14.188;2023-04-24T02:50:10;1.10;;;1.00;;
68475;SDS011;55464;48.266;14.188;2023-04-24T02:52:35;1.80;;;0.77;;
68475;SDS011;55464;48.266;14.188;2023-04-24T02:55:01;1.77;;;1.10;;
68475;SDS011;55464;48.266;14.188;2023-04-24T02:57:27;1.70;;;1.10;;
68475;SDS011;55464;48.266;14.188;2023-04-24T02:59:52;1.80;;;1.17;;
68475;SDS011;55464;48.266;14.188;2023-04-24T03:02:17;1.05;;;0.95;;
68475;SDS011;55464;48.266;14.188;2023-04-24T03:04:43;2.30;;;1.27;;
68475;SDS011;55464;48.266;14.188;2023-04-24T03:07:08;2.50;;;1.00;;
68475;SDS011;55464;48.266;14.188;2023-04-24T03:09:34;1.67;;;1.38;;
68475;SDS011;55464;48.266;14.188;2023-04-24T03:11:59;1.75;;;1.13;;
68475;SDS011;55464;48.266;14.188;2023-04-24T03:14:25;1.48;;;1.25;;
68475;SDS011;55464;48.266;14.188;2023-04-24T03:16:50;1.52;;;1.25;;
68475;SDS011;55464;48.266;14.188;2023-04-24T03:19:16;1.42;;;1.33;;
68475;SDS011;55464;48.266;14.188;2023-04-24T03:21:41;1.30;;;1.05;;
68475;SDS011;55464;48.266;14.188;2023-04-24T03:24:07;1.48;;;1.30;;
68475;SDS011;55464;48.266;14.188;2023-04-24T03:26:34;1.63;;;1.20;;
68475;SDS011;55464;48.266;14.188;2023-04-24T03:29:00;1.70;;;1.45;;
68475;SDS011;55464;48.266;14.188;2023-04-24T03:31:25;1.70;;;1.45;;
68475;SDS011;55464;48.266;14.188;2023-04-24T03:33:51;1.65;;;1.45;;
68475;SDS011;55464;48.266;14.188;2023-04-24T03:36:16;1.52;;;1.42;;
68475;SDS011;55464;48.266;14.188;2023-04-24T03:38:42;1.95;;;1.85;;
68475;SDS011;55464;48.266;14.188;2023-04-24T03:41:08;2.42;;;2.03;;
68475;SDS011;55464;48.266;14.188;2023-04-24T03:43:33;1.45;;;1.35;;
68475;SDS011;55464;48.266;14.188;2023-04-24T03:45:59;2.03;;;1.70;;
68475;SDS011;55464;48.266;14.188;2023-04-24T03:48:25;1.70;;;1.45;;
68475;SDS011;55464;48.266;14.188;2023-04-24T03:50:50;1.95;;;1.85;;
68475;SDS011;55464;48.266;14.188;2023-04-24T03:53:16;1.85;;;1.75;;
68475;SDS011;55464;48.266;14.188;2023-04-24T03:55:41;2.33;;;1.65;;
68475;SDS011;55464;48.266;14.188;2023-04-24T03:58:07;1.95;;;1.77;;
68475;SDS011;55464;48.266;14.188;2023-04-24T04:00:32;3.47;;;1.80;;
68475;SDS011;55464;48.266;14.188;2023-04-24T04:02:59;1.55;;;1.45;;
68475;SDS011;55464;48.266;14.188;2023-04-24T04:05:24;2.53;;;1.58;;
68475;SDS011;55464;48.266;14.188;2023-04-24T04:07:50;2.00;;;1.70;;
68475;SDS011;55464;48.266;14.188;2023-04-24T04:10:15;3.53;;;1.75;;
68475;SDS011;55464;48.266;14.188;2023-04-24T04:12:42;2.60;;;1.70;;
68475;SDS011;55464;48.266;14.188;2023-04-24T04:15:07;1.40;;;1.30;;
68475;SDS011;55464;48.266;14.188;2023-04-24T04:17:33;1.38;;;1.27;;
68475;SDS011;55464;48.266;14.188;2023-04-24T04:19:58;1.63;;;1.50;;
68475;SDS011;55464;48.266;14.188;2023-04-24T04:22:24;1.73;;;1.15;;
68475;SDS011;55464;48.266;14.188;2023-04-24T04:24:49;1.38;;;1.20;;
68475;SDS011;55464;48.266;14.188;2023-04-24T04:27:16;1.58;;;1.48;;
68475;SDS011;55464;48.266;14.188;2023-04-24T04:29:41;1.00;;;0.98;;
68475;SDS011;55464;48.266;14.188;2023-04-24T04:32:07;1.20;;;1.10;;
68475;SDS011;55464;48.266;14.188;2023-04-24T04:34:33;1.92;;;1.17;;
68475;SDS011;55464;48.266;14.188;2023-04-24T04:36:58;1.40;;;1.30;;
68475;SDS011;55464;48.266;14.188;2023-04-24T04:39:27;1.08;;;1.00;;
68475;SDS011;55464;48.266;14.188;2023-04-24T04:41:53;1.27;;;0.93;;
68475;SDS011;55464;48.266;14.188;2023-04-24T04:44:19;2.67;;;0.93;;
68475;SDS011;55464;48.266;14.188;2023-04-24T04:46:44;0.80;;;0.80;;
68475;SDS011;55464;48.266;14.188;2023-04-24T04:49:10;1.13;;;1.02;;
68475;SDS011;55464;48.266;14.188;2023-04-24T04:51:36;0.93;;;0.93;;
68475;SDS011;55464;48.266;14.188;2023-04-24T04:54:01;1.77;;;0.85;;
68475;SDS011;55464;48.266;14.188;2023-04-24T04:56:27;1.10;;;0.95;;
68475;SDS011;55464;48.266;14.188;2023-04-24T04:58:52;1.63;;;0.75;;
68475;SDS011;55464;48.266;14.188;2023-04-24T05:01:18;0.80;;;0.80;;
68475;SDS011;55464;48.266;14.188;2023-04-24T05:03:43;0.77;;;0.77;;
68475;SDS011;55464;48.266;14.188;2023-04-24T05:06:09;1.58;;;0.90;;
68475;SDS011;55464;48.266;14.188;2023-04-24T05:08:34;1.02;;;0.70;;
68475;SDS011;55464;48.266;14.188;2023-04-24T05:10:59;0.80;;;0.80;;
68475;SDS011;55464;48.266;14.188;2023-04-24T05:13:25;1.58;;;0.73;;
68475;SDS011;55464;48.266;14.188;2023-04-24T05:15:50;1.10;;;1.00;;
68475;SDS011;55464;48.266;14.188;2023-04-24T05:18:16;2.60;;;0.88;;
68475;SDS011;55464;48.266;14.188;2023-04-24T05:20:41;0.85;;;0.85;;
68475;SDS011;55464;48.266;14.188;2023-04-24T05:23:08;2.10;;;0.60;;
68475;SDS011;55464;48.266;14.188;2023-04-24T05:25:35;0.90;;;0.90;;
68475;SDS011;55464;48.266;14.188;2023-04-24T05:28:01;0.85;;;0.80;;
68475;SDS011;55464;48.266;14.188;2023-04-24T05:30:27;1.00;;;0.85;;
68475;SDS011;55464;48.266;14.188;2023-04-24T05:32:53;1.92;;;0.60;;
68475;SDS011;55464;48.266;14.188;2023-04-24T05:35:18;0.50;;;0.50;;
68475;SDS011;55464;48.266;14.188;2023-04-24T05:37:44;1.13;;;0.63;;
68475;SDS011;55464;48.266;14.188;2023-04-24T05:40:09;0.55;;;0.55;;
68475;SDS011;55464;48.266;14.188;2023-04-24T05:42:36;0.70;;;0.60;;
68475;SDS011;55464;48.266;14.188;2023-04-24T05:45:01;0.55;;;0.45;;
68475;SDS011;55464;48.266;14.188;2023-04-24T05:47:27;1.02;;;0.47;;
68475;SDS011;55464;48.266;14.188;2023-04-24T05:49:52;1.35;;;0.60;;
68475;SDS011;55464;48.266;14.188;2023-04-24T05:52:18;1.92;;;0.73;;
68475;SDS011;55464;48.266;14.188;2023-04-24T05:54:43;2.67;;;0.60;;
68475;SDS011;55464;48.266;14.188;2023-04-24T05:57:09;1.38;;;0.60;;
68475;SDS011;55464;48.266;14.188;2023-04-24T05:59:36;0.68;;;0.68;;
68475;SDS011;55464;48.266;14.188;2023-04-24T06:02:05;1.23;;;0.50;;
68475;SDS011;55464;48.266;14.188;2023-04-24T06:04:31;1.85;;;0.50;;
68475;SDS011;55464;48.266;14.188;2023-04-24T06:06:57;0.93;;;0.88;;
68475;SDS011;55464;48.266;14.188;2023-04-24T06:09:22;0.60;;;0.60;;
68475;SDS011;55464;48.266;14.188;2023-04-24T06:11:48;0.68;;;0.68;;
68475;SDS011;55464;48.266;14.188;2023-04-24T06:14:14;2.33;;;0.60;;
68475;SDS011;55464;48.266;14.188;2023-04-24T06:16:41;1.10;;;0.77;;
68475;SDS011;55464;48.266;14.188;2023-04-24T06:19:07;0.40;;;0.40;;
68475;SDS011;55464;48.266;14.188;2023-04-24T06:21:32;0.70;;;0.40;;
68475;SDS011;55464;48.266;14.188;2023-04-24T06:23:58;0.73;;;0.50;;
68475;SDS011;55464;48.266;14.188;2023-04-24T06:26:23;0.35;;;0.35;;
68475;SDS011;55464;48.266;14.188;2023-04-24T06:28:51;0.57;;;0.47;;
68475;SDS011;55464;48.266;14.188;2023-04-24T06:31:18;0.40;;;0.40;;
68475;SDS011;55464;48.266;14.188;2023-04-24T06:33:44;1.65;;;0.57;;
68475;SDS011;55464;48.266;14.188;2023-04-24T06:36:10;0.50;;;0.35;;
68475;SDS011;55464;48.266;14.188;2023-04-24T06:38:35;1.73;;;0.90;;
68475;SDS011;55464;48.266;14.188;2023-04-24T06:41:01;2.78;;;0.50;;
68475;SDS011;55464;48.266;14.188;2023-04-24T06:43:26;1.67;;;0.43;;
68475;SDS011;55464;48.266;14.188;2023-04-24T06:45:52;0.30;;;0.30;;
68475;SDS011;55464;48.266;14.188;2023-04-24T06:48:17;0.52;;;0.50;;
68475;SDS011;55464;48.266;14.188;2023-04-24T06:50:42;1.58;;;0.60;;
68475;SDS011;55464;48.266;14.188;2023-04-24T06:53:08;0.55;;;0.40;;
68475;SDS011;55464;48.266;14.188;2023-04-24T06:55:36;0.70;;;0.60;;
68475;SDS011;55464;48.266;14.188;2023-04-24T06:58:01;0.65;;;0.50;;
68475;SDS011;55464;48.266;14.188;2023-04-24T07:00:26;0.50;;;0.50;;
68475;SDS011;55464;48.266;14.188;2023-04-24T07:02:52;1.17;;;0.40;;
68475;SDS011;55464;48.266;14.188;2023-04-24T07:05:17;1.63;;;0.40;;
68475;SDS011;55464;48.266;14.188;2023-04-24T07:07:45;0.63;;;0.43;;
68475;SDS011;55464;48.266;14.188;2023-04-24T07:10:12;0.40;;;0.40;;
68475;SDS011;55464;48.266;14.188;2023-04-24T07:12:38;0.77;;;0.50;;
68475;SDS011;55464;48.266;14.188;2023-04-24T07:15:04;0.60;;;0.50;;
68475;SDS011;55464;48.266;14.188;2023-04-24T07:17:30;0.63;;;0.60;;
68475;SDS011;55464;48.266;14.188;2023-04-24T07:19:55;1.02;;;0.63;;
68475;SDS011;55464;48.266;14.188;2023-04-24T07:22:21;1.73;;;0.60;;
68475;SDS011;55464;48.266;14.188;2023-04-24T07:24:46;1.13;;;0.88;;
68475;SDS011;55464;48.266;14.188;2023-04-24T07:27:12;0.95;;;0.50;;
68475;SDS011;55464;48.266;14.188;2023-04-24T07:29:39;1.13;;;0.70;;
68475;SDS011;55464;48.266;14.188;2023-04-24T07:32:05;0.70;;;0.70;;
68475;SDS011;55464;48.266;14.188;2023-04-24T07:34:31;0.70;;;0.70;;
68475;SDS011;55464;48.266;14.188;2023-04-24T07:36:56;0.63;;;0.60;;
68475;SDS011;55464;48.266;14.188;2023-04-24T07:39:22;0.80;;;0.60;;
68475;SDS011;55464;48.266;14.188;2023-04-24T07:41:48;1.80;;;0.60;;
68475;SDS011;55464;48.266;14.188;2023-04-24T07:44:13;0.95;;;0.85;;
68475;SDS011;55464;48.266;14.188;2023-04-24T07:46:39;1.02;;;0.80;;
68475;SDS011;55464;48.266;14.188;2023-04-24T07:49:05;0.80;;;0.80;;
68475;SDS011;55464;48.266;14.188;2023-04-24T07:51:31;0.70;;;0.70;;
68475;SDS011;55464;48.266;14.188;2023-04-24T07:53:58;0.82;;;0.70;;
68475;SDS011;55464;48.266;14.188;2023-04-24T07:56:24;0.77;;;0.50;;
68475;SDS011;55464;48.266;14.188;2023-04-24T07:58:50;1.92;;;0.70;;
68475;SDS011;55464;48.266;14.188;2023-04-24T08:01:15;1.17;;;0.80;;
68475;SDS011;55464;48.266;14.188;2023-04-24T08:03:41;1.10;;;0.75;;
68475;SDS011;55464;48.266;14.188;2023-04-24T08:06:06;0.68;;;0.50;;
68475;SDS011;55464;48.266;14.188;2023-04-24T08:08:31;1.92;;;0.60;;
68475;SDS011;55464;48.266;14.188;2023-04-24T08:10:57;0.47;;;0.47;;
68475;SDS011;55464;48.266;14.188;2023-04-24T08:13:23;0.93;;;0.60;;
68475;SDS011;55464;48.266;14.188;2023-04-24T08:15:48;0.82;;;0.63;;
68475;SDS011;55464;48.266;14.188;2023-04-24T08:18:14;1.55;;;0.70;;
68475;SDS011;55464;48.266;14.188;2023-04-24T08:20:40;1.75;;;0.77;;
68475;SDS011;55464;48.266;14.188;2023-04-24T08:23:06;0.80;;;0.60;;
68475;SDS011;55464;48.266;14.188;2023-04-24T08:25:32;1.65;;;0.60;;
68475;SDS011;55464;48.266;14.188;2023-04-24T08:27:57;1.55;;;0.75;;
68475;SDS011;55464;48.266;14.188;2023-04-24T08:30:22;1.67;;;0.70;;
68475;SDS011;55464;48.266;14.188;2023-04-24T08:32:48;1.02;;;0.80;;
68475;SDS011;55464;48.266;14.188;2023-04-24T08:35:13;1.90;;;0.80;;
68475;SDS011;55464;48.266;14.188;2023-04-24T08:37:39;0.80;;;0.80;;
68475;SDS011;55464;48.266;14.188;2023-04-24T08:40:14;1.85;;;0.98;;
68475;SDS011;55464;48.266;14.188;2023-04-24T08:42:41;1.10;;;0.70;;
68475;SDS011;55464;48.266;14.188;2023-04-24T08:45:08;0.57;;;0.57;;
68475;SDS011;55464;48.266;14.188;2023-04-24T08:47:35;2.58;;;0.60;;
68475;SDS011;55464;48.266;14.188;2023-04-24T08:50:03;1.83;;;1.13;;
68475;SDS011;55464;48.266;14.188;2023-04-24T08:52:31;2.13;;;0.60;;
68475;SDS011;55464;48.266;14.188;2023-04-24T08:54:57;1.05;;;0.77;;
68475;SDS011;55464;48.266;14.188;2023-04-24T08:57:24;0.60;;;0.60;;
68475;SDS011;55464;48.266;14.188;2023-04-24T08:59:51;1.67;;;0.60;;
68475;SDS011;55464;48.266;14.188;2023-04-24T09:02:18;1.45;;;0.63;;
68475;SDS011;55464;48.266;14.188;2023-04-24T09:04:44;1.20;;;0.60;;
68475;SDS011;55464;48.266;14.188;2023-04-24T09:07:12;0.93;;;0.75;;
68475;SDS011;55464;48.266;14.188;2023-04-24T09:09:41;0.60;;;0.50;;
68475;SDS011;55464;48.266;14.188;2023-04-24T09:12:07;1.25;;;0.60;;
68475;SDS011;55464;48.266;14.188;2023-04-24T09:14:34;0.63;;;0.63;;
68475;SDS011;55464;48.266;14.188;2023-04-24T09:17:01;2.28;;;0.70;;
68475;SDS011;55464;48.266;14.188;2023-04-24T09:19:26;1.92;;;0.70;;
68475;SDS011;55464;48.266;14.188;2023-04-24T09:21:52;1.13;;;0.82;;
68475;SDS011;55464;48.266;14.188;2023-04-24T09:24:18;0.60;;;0.60;;
68475;SDS011;55464;48.266;14.188;2023-04-24T09:26:47;2.30;;;0.70;;
68475;SDS011;55464;48.266;14.188;2023-04-24T09:29:17;1.45;;;1.17;;
68475;SDS011;55464;48.266;14.188;2023-04-24T09:31:43;0.60;;;0.60;;
68475;SDS011;55464;48.266;14.188;2023-04-24T09:34:10;0.70;;;0.63;;
68475;SDS011;55464;48.266;14.188;2023-04-24T09:36:39;0.98;;;0.60;;
68475;SDS011;55464;48.266;14.188;2023-04-24T09:39:11;0.95;;;0.63;;
68475;SDS011;55464;48.266;14.188;2023-04-24T09:41:51;1.00;;;0.70;;
68475;SDS011;55464;48.266;14.188;2023-04-24T09:44:27;0.82;;;0.55;;
68475;SDS011;55464;48.266;14.188;2023-04-24T09:46:57;1.20;;;1.10;;
68475;SDS011;55464;48.266;14.188;2023-04-24T09:51:50;1.52;;;0.63;;
68475;SDS011;55464;48.266;14.188;2023-04-24T09:54:17;0.60;;;0.60;;
68475;SDS011;55464;48.266;14.188;2023-04-24T09:56:45;0.50;;;0.50;;
68475;SDS011;55464;48.266;14.188;2023-04-24T09:59:13;1.60;;;0.75;;
68475;SDS011;55464;48.266;14.188;2023-04-24T10:01:39;0.45;;;0.45;;
68475;SDS011;55464;48.266;14.188;2023-04-24T10:04:17;0.95;;;0.77;;
68475;SDS011;55464;48.266;14.188;2023-04-24T10:06:53;0.90;;;0.85;;
68475;SDS011;55464;48.266;14.188;2023-04-24T10:09:21;1.02;;;0.60;;
68475;SDS011;55464;48.266;14.188;2023-04-24T10:11:54;0.60;;;0.55;;
68475;SDS011;55464;48.266;14.188;2023-04-24T10:14:23;0.70;;;0.70;;
68475;SDS011;55464;48.266;14.188;2023-04-24T10:19:17;0.95;;;0.80;;
68475;SDS011;55464;48.266;14.188;2023-04-24T10:21:43;0.65;;;0.50;;
68475;SDS011;55464;48.266;14.188;2023-04-24T10:24:16;3.28;;;0.70;;
68475;SDS011;55464;48.266;14.188;2023-04-24T10:26:43;0.52;;;0.52;;
68475;SDS011;55464;48.266;14.188;2023-04-24T10:29:10;0.93;;;0.70;;
68475;SDS011;55464;48.266;14.188;2023-04-24T10:31:40;1.13;;;0.32;;
68475;SDS011;55464;48.266;14.188;2023-04-24T10:34:06;3.53;;;0.65;;
68475;SDS011;55464;48.266;14.188;2023-04-24T10:36:33;0.75;;;0.68;;
68475;SDS011;55464;48.266;14.188;2023-04-24T10:39:01;0.47;;;0.47;;
68475;SDS011;55464;48.266;14.188;2023-04-24T10:41:29;0.73;;;0.52;;
68475;SDS011;55464;48.266;14.188;2023-04-24T10:46:37;0.68;;;0.43;;
68475;SDS011;55464;48.266;14.188;2023-04-24T10:49:06;0.65;;;0.43;;
68475;SDS011;55464;48.266;14.188;2023-04-24T10:59:47;0.75;;;0.50;;
68475;SDS011;55464;48.266;14.188;2023-04-24T11:02:17;0.73;;;0.50;;
68475;SDS011;55464;48.266;14.188;2023-04-24T11:04:43;1.13;;;0.45;;
68475;SDS011;55464;48.266;14.188;2023-04-24T11:07:10;1.40;;;0.70;;
68475;SDS011;55464;48.266;14.188;2023-04-24T11:09:36;0.50;;;0.50;;
68475;SDS011;55464;48.266;14.188;2023-04-24T11:12:11;0.82;;;0.82;;
68475;SDS011;55464;48.266;14.188;2023-04-24T11:17:32;0.50;;;0.50;;
68475;SDS011;55464;48.266;14.188;2023-04-24T11:20:09;4.68;;;0.70;;
68475;SDS011;55464;48.266;14.188;2023-04-24T11:22:37;0.47;;;0.45;;
68475;SDS011;55464;48.266;14.188;2023-04-24T11:28:02;1.10;;;0.50;;
68475;SDS011;55464;48.266;14.188;2023-04-24T11:30:29;0.68;;;0.50;;
68475;SDS011;55464;48.266;14.188;2023-04-24T11:32:55;1.50;;;0.70;;
68475;SDS011;55464;48.266;14.188;2023-04-24T11:35:28;0.50;;;0.50;;
68475;SDS011;55464;48.266;14.188;2023-04-24T11:37:55;0.60;;;0.60;;
68475;SDS011;55464;48.266;14.188;2023-04-24T11:40:22;2.70;;;0.60;;
68475;SDS011;55464;48.266;14.188;2023-04-24T11:42:48;0.98;;;0.60;;
68475;SDS011;55464;48.266;14.188;2023-04-24T11:47:44;2.08;;;0.55;;
68475;SDS011;55464;48.266;14.188;2023-04-24T11:50:14;0.75;;;0.52;;
68475;SDS011;55464;48.266;14.188;2023-04-24T11:52:42;3.33;;;0.70;;
68475;SDS011;55464;48.266;14.188;2023-04-24T11:57:43;0.57;;;0.50;;
68475;SDS011;55464;48.266;14.188;2023-04-24T12:02:46;1.00;;;0.75;;
68475;SDS011;55464;48.266;14.188;2023-04-24T12:05:23;0.47;;;0.43;;
68475;SDS011;55464;48.266;14.188;2023-04-24T12:07:53;0.50;;;0.45;;
68475;SDS011;55464;48.266;14.188;2023-04-24T12:10:19;0.70;;;0.55;;
68475;SDS011;55464;48.266;14.188;2023-04-24T12:12:49;0.22;;;0.22;;
68475;SDS011;55464;48.266;14.188;2023-04-24T12:15:16;0.50;;;0.50;;
68475;SDS011;55464;48.266;14.188;2023-04-24T12:17:43;0.63;;;0.28;;
68475;SDS011;55464;48.266;14.188;2023-04-24T12:20:08;3.28;;;0.30;;
68475;SDS011;55464;48.266;14.188;2023-04-24T12:22:50;2.08;;;0.30;;
68475;SDS011;55464;48.266;14.188;2023-04-24T12:25:19;0.73;;;0.30;;
68475;SDS011;55464;48.266;14.188;2023-04-24T12:30:18;0.77;;;0.30;;
68475;SDS011;55464;48.266;14.188;2023-04-24T12:32:45;0.68;;;0.30;;
68475;SDS011;55464;48.266;14.188;2023-04-24T12:35:13;0.40;;;0.25;;
68475;SDS011;55464;48.266;14.188;2023-04-24T12:37:41;1.40;;;0.30;;
68475;SDS011;55464;48.266;14.188;2023-04-24T12:40:11;0.40;;;0.40;;
68475;SDS011;55464;48.266;14.188;2023-04-24T12:42:51;2.40;;;0.30;;
68475;SDS011;55464;48.266;14.188;2023-04-24T12:45:17;0.20;;;0.20;;
68475;SDS011;55464;48.266;14.188;2023-04-24T12:47:44;0.30;;;0.30;;
68475;SDS011;55464;48.266;14.188;2023-04-24T12:50:11;1.17;;;0.60;;
68475;SDS011;55464;48.266;14.188;2023-04-24T12:52:37;1.45;;;0.43;;
68475;SDS011;55464;48.266;14.188;2023-04-24T12:55:04;0.40;;;0.40;;
68475;SDS011;55464;48.266;14.188;2023-04-24T12:57:33;0.20;;;0.20;;
68475;SDS011;55464;48.266;14.188;2023-04-24T12:59:59;2.85;;;0.55;;
68475;SDS011;55464;48.266;14.188;2023-04-24T13:02:26;3.60;;;0.73;;
68475;SDS011;55464;48.266;14.188;2023-04-24T13:04:54;0.40;;;0.40;;
68475;SDS011;55464;48.266;14.188;2023-04-24T13:07:20;1.05;;;0.63;;
68475;SDS011;55464;48.266;14.188;2023-04-24T13:09:47;0.40;;;0.40;;
68475;SDS011;55464;48.266;14.188;2023-04-24T13:12:13;0.60;;;0.60;;
68475;SDS011;55464;48.266;14.188;2023-04-24T13:14:39;1.98;;;0.70;;
68475;SDS011;55464;48.266;14.188;2023-04-24T13:17:04;0.60;;;0.60;;
68475;SDS011;55464;48.266;14.188;2023-04-24T13:19:35;2.08;;;0.60;;
68475;SDS011;55464;48.266;14.188;2023-04-24T13:22:08;0.55;;;0.55;;
68475;SDS011;55464;48.266;14.188;2023-04-24T13:24:35;0.65;;;0.63;;
68475;SDS011;55464;48.266;14.188;2023-04-24T13:27:02;0.73;;;0.70;;
68475;SDS011;55464;48.266;14.188;2023-04-24T13:29:28;2.38;;;0.80;;
68475;SDS011;55464;48.266;14.188;2023-04-24T13:31:54;0.50;;;0.50;;
68475;SDS011;55464;48.266;14.188;2023-04-24T13:34:20;0.80;;;0.80;;
68475;SDS011;55464;48.266;14.188;2023-04-24T13:36:46;1.30;;;0.75;;
68475;SDS011;55464;48.266;14.188;2023-04-24T13:39:12;0.68;;;0.57;;
68475;SDS011;55464;48.266;14.188;2023-04-24T13:41:37;0.73;;;0.70;;
68475;SDS011;55464;48.266;14.188;2023-04-24T13:44:03;0.70;;;0.70;;
68475;SDS011;55464;48.266;14.188;2023-04-24T13:46:29;3.42;;;0.88;;
68475;SDS011;55464;48.266;14.188;2023-04-24T13:48:55;1.48;;;0.70;;
68475;SDS011;55464;48.266;14.188;2023-04-24T13:51:22;1.95;;;0.98;;
68475;SDS011;55464;48.266;14.188;2023-04-24T13:53:47;1.02;;;1.00;;
68475;SDS011;55464;48.266;14.188;2023-04-24T13:56:14;0.80;;;0.80;;
68475;SDS011;55464;48.266;14.188;2023-04-24T13:58:39;1.85;;;1.00;;
68475;SDS011;55464;48.266;14.188;2023-04-24T14:01:05;0.60;;;0.60;;
68475;SDS011;55464;48.266;14.188;2023-04-24T14:03:31;0.88;;;0.88;;
68475;SDS011;55464;48.266;14.188;2023-04-24T14:05:58;1.38;;;0.80;;
68475;SDS011;55464;48.266;14.188;2023-04-24T14:08:23;1.00;;;1.00;;
68475;SDS011;55464;48.266;14.188;2023-04-24T14:10:49;1.73;;;1.10;;
68475;SDS011;55464;48.266;14.188;2023-04-24T14:13:15;0.85;;;0.85;;
68475;SDS011;55464;48.266;14.188;2023-04-24T14:15:41;1.85;;;1.00;;
68475;SDS011;55464;48.266;14.188;2023-04-24T14:18:07;1.83;;;1.70;;
68475;SDS011;55464;48.266;14.188;2023-04-24T14:20:32;3.63;;;1.50;;
68475;SDS011;55464;48.266;14.188;2023-04-24T14:22:57;0.90;;;0.90;;
68475;SDS011;55464;48.266;14.188;2023-04-24T14:25:24;1.35;;;1.00;;
68475;SDS011;55464;48.266;14.188;2023-04-24T14:27:50;1.80;;;1.23;;
68475;SDS011;55464;48.266;14.188;2023-04-24T14:30:15;2.20;;;1.05;;
68475;SDS011;55464;48.266;14.188;2023-04-24T14:32:41;1.77;;;0.88;;
68475;SDS011;55464;48.266;14.188;2023-04-24T14:35:07;1.45;;;1.20;;
68475;SDS011;55464;48.266;14.188;2023-04-24T14:37:32;1.67;;;0.90;;
68475;SDS011;55464;48.266;14.188;2023-04-24T14:39:58;4.00;;;1.15;;
68475;SDS011;55464;48.266;14.188;2023-04-24T14:42:24;1.83;;;1.10;;
68475;SDS011;55464;48.266;14.188;2023-04-24T14:44:49;1.63;;;1.30;;
68475;SDS011;55464;48.266;14.188;2023-04-24T14:47:15;1.70;;;0.85;;
68475;SDS011;55464;48.266;14.188;2023-04-24T14:49:42;1.83;;;0.90;;
68475;SDS011;55464;48.266;14.188;2023-04-24T14:52:08;3.83;;;0.95;;
68475;SDS011;55464;48.266;14.188;2023-04-24T14:54:34;2.17;;;0.70;;
68475;SDS011;55464;48.266;14.188;2023-04-24T14:57:00;0.90;;;0.90;;
68475;SDS011;55464;48.266;14.188;2023-04-24T14:59:27;2.72;;;0.80;;
68475;SDS011;55464;48.266;14.188;2023-04-24T15:01:52;0.63;;;0.63;;